Terminal Aerodrome Forecast
Issued by NWS

Home | Current Version | Previous Version | Text Only | Print | Product List | Glossary On
Versions: 1 2 3 4 5 6 7 8 9 10 11 12 13 14 15 16 17 18 19 20 21 22 23 24 25 26 27 28 29 30 31 32
000
FTUS41 KBOX 231928 AAA
TAFHYA
TAF AMD
KHYA 231928Z 2319/2418 22012KT P6SM OVC005
     FM232100 22012KT P6SM SCT006
     FM240000 23010KT 1/2SM FG BKN003
     FM241100 22006KT 1SM BR SCT003 BKN025=

USA.gov is the U.S. government's official web portal to all federal, state and local government web resources and services.